createdAt,value
2023-02-11T00:00:41.161Z,1032.75
2023-02-11T00:04:35.424Z,1032.68
2023-02-11T00:08:35.405Z,1032.62
2023-02-11T00:12:35.201Z,1032.66
2023-02-11T00:16:35.625Z,1032.5
2023-02-11T00:20:35.596Z,1032.59
2023-02-11T00:24:35.768Z,1032.49
2023-02-11T00:28:35.987Z,1032.44
2023-02-11T00:32:35.896Z,1032.37
2023-02-11T00:36:36.024Z,1032.55
2023-02-11T00:40:35.061Z,1032.32
2023-02-11T00:44:35.360Z,1032.46
2023-02-11T00:48:35.464Z,1032.46
2023-02-11T00:52:35.550Z,1032.63
2023-02-11T00:56:35.573Z,1032.54
2023-02-11T01:00:41.841Z,1032.62
2023-02-11T01:04:35.786Z,1032.59
2023-02-11T01:08:36.027Z,1032.47
2023-02-11T01:12:36.402Z,1032.42
2023-02-11T01:16:35.394Z,1032.39
2023-02-11T01:20:35.483Z,1032.43
2023-02-11T01:24:35.766Z,1032.39
2023-02-11T01:28:36.305Z,1032.37
2023-02-11T01:32:35.977Z,1032.3
2023-02-11T01:36:36.054Z,1032.33
2023-02-11T01:40:35.143Z,1032.23
2023-02-11T01:44:35.414Z,1032.28
2023-02-11T01:48:35.619Z,1032.19
2023-02-11T01:52:35.625Z,1032.36
2023-02-11T01:56:35.744Z,1032.16
2023-02-11T02:00:38.412Z,1032.02
2023-02-11T02:04:35.402Z,1032.14
2023-02-11T02:08:35.744Z,1032.05
2023-02-11T02:12:35.777Z,1032.19
2023-02-11T02:16:36.240Z,1032.17
2023-02-11T02:20:36.089Z,1032.14
2023-02-11T02:24:36.906Z,1032.12
2023-02-11T02:28:36.139Z,1032.28
2023-02-11T02:32:35.205Z,1032.23
2023-02-11T02:36:35.313Z,1032.28
2023-02-11T02:40:35.640Z,1032.22
2023-02-11T02:44:35.822Z,1032.16
2023-02-11T02:48:35.687Z,1032.04
2023-02-11T02:52:35.833Z,1032.13
2023-02-11T02:56:35.803Z,1032.23
2023-02-11T03:00:37.718Z,1032.31
2023-02-11T03:04:35.381Z,1032.29
2023-02-11T03:08:35.516Z,1032.15
2023-02-11T03:12:35.785Z,1032.16
2023-02-11T03:16:35.258Z,1032.06
2023-02-11T03:20:35.215Z,1032.03
2023-02-11T03:24:35.155Z,1032.14
2023-02-11T03:28:35.738Z,1032.12
2023-02-11T03:32:35.721Z,1032.13
2023-02-11T03:36:35.585Z,1032.08
2023-02-11T03:40:35.541Z,1031.9
2023-02-11T03:44:35.649Z,1032.02
2023-02-11T03:48:35.905Z,1031.99
2023-02-11T03:52:35.958Z,1031.9
2023-02-11T03:56:36.087Z,1031.87
2023-02-11T04:00:38.823Z,1031.94
2023-02-11T04:04:35.042Z,1031.95
2023-02-11T04:08:35.177Z,1032
2023-02-11T04:12:35.419Z,1031.92
2023-02-11T04:16:35.912Z,1031.84
2023-02-11T04:20:35.904Z,1031.81
2023-02-11T04:24:35.957Z,1031.87
2023-02-11T04:28:36.104Z,1032.01
2023-02-11T04:32:35.802Z,1031.84
2023-02-11T04:36:35.304Z,1031.92
2023-02-11T04:40:35.489Z,1031.95
2023-02-11T04:44:35.592Z,1031.98
2023-02-11T04:48:35.967Z,1031.94
2023-02-11T04:52:35.584Z,1031.87
2023-02-11T04:56:35.939Z,1031.86
2023-02-11T05:00:40.031Z,1031.86
2023-02-11T05:04:36.206Z,1031.69
2023-02-11T05:08:35.828Z,1031.82
2023-02-11T05:12:35.993Z,1031.8
2023-02-11T05:16:35.477Z,1031.78
2023-02-11T05:20:35.917Z,1031.9
2023-02-11T05:24:35.788Z,1032.05
2023-02-11T05:28:35.536Z,1032.13
2023-02-11T05:32:35.200Z,1032.19
2023-02-11T05:36:35.408Z,1032.19
2023-02-11T05:40:35.586Z,1032.26
2023-02-11T05:44:35.727Z,1032.26
2023-02-11T05:48:35.637Z,1032.24
2023-02-11T05:52:36.075Z,1032.22
2023-02-11T05:56:35.701Z,1032.29
2023-02-11T06:00:38.723Z,1032.26
2023-02-11T06:04:35.924Z,1032.18
2023-02-11T06:08:38.813Z,1032.12
2023-02-11T06:12:35.930Z,1032.28
2023-02-11T06:16:36.277Z,1032.29
2023-02-11T06:20:36.122Z,1032.2
2023-02-11T06:25:06.158Z,1032.17
2023-02-11T06:28:36.396Z,1032.15
2023-02-11T06:33:02.364Z,1032.2
2023-02-11T06:36:36.086Z,1032.17
2023-02-11T06:40:36.193Z,1032.22
2023-02-11T06:44:35.033Z,1032.23
2023-02-11T06:48:35.153Z,1032.26
2023-02-11T06:52:35.171Z,1032.28
2023-02-11T06:56:35.353Z,1032.12
2023-02-11T07:00:39.757Z,1032.24
2023-02-11T07:04:35.637Z,1032.31
2023-02-11T07:08:35.692Z,1032.33
2023-02-11T07:12:35.664Z,1032.34
2023-02-11T07:16:36.186Z,1032.39
2023-02-11T07:20:35.906Z,1032.5
2023-02-11T07:24:35.918Z,1032.45
2023-02-11T07:28:35.865Z,1032.55
2023-02-11T07:32:35.822Z,1032.63
2023-02-11T07:36:35.446Z,1032.58
2023-02-11T07:40:35.438Z,1032.61
2023-02-11T07:44:35.419Z,1032.63
2023-02-11T07:48:35.482Z,1032.7
2023-02-11T07:52:35.452Z,1032.64
2023-02-11T07:56:35.259Z,1032.55
2023-02-11T08:00:38.784Z,1032.64
2023-02-11T08:04:35.774Z,1032.77
2023-02-11T08:08:36.032Z,1032.77
2023-02-11T08:12:35.950Z,1032.7
2023-02-11T08:16:36.243Z,1032.83
2023-02-11T08:20:35.685Z,1032.83
2023-02-11T08:24:35.585Z,1032.82
2023-02-11T08:28:36.021Z,1032.9
2023-02-11T08:32:35.520Z,1032.83
2023-02-11T08:36:35.158Z,1032.95
2023-02-11T08:40:36.277Z,1033.04
2023-02-11T08:44:35.927Z,1033.02
2023-02-11T08:48:35.810Z,1033.16
2023-02-11T08:52:35.652Z,1033.09
2023-02-11T08:56:36.230Z,1033.22
2023-02-11T09:00:41.621Z,1033.18
2023-02-11T09:04:35.687Z,1033.16
2023-02-11T09:08:35.633Z,1033.25
2023-02-11T09:12:35.794Z,1033.29
2023-02-11T09:16:35.990Z,1033.26
2023-02-11T09:20:36.128Z,1033.32
2023-02-11T09:24:35.933Z,1033.16
2023-02-11T09:28:36.126Z,1033.23
2023-02-11T09:32:36.086Z,1033.37
2023-02-11T09:36:35.758Z,1033.48
2023-02-11T09:40:35.773Z,1033.46
2023-02-11T09:44:35.815Z,1033.35
2023-02-11T09:48:39.988Z,1033.52
2023-02-11T09:52:35.775Z,1033.52
2023-02-11T09:56:35.058Z,1033.62
2023-02-11T10:00:35.198Z,1033.56
2023-02-11T10:04:35.762Z,1033.7
2023-02-11T10:08:39.015Z,1033.75
2023-02-11T10:12:35.695Z,1033.76
2023-02-11T10:16:36.118Z,1033.7
2023-02-11T10:20:39.404Z,1033.9
2023-02-11T10:24:36.016Z,1033.88
2023-02-11T10:28:36.426Z,1033.9
2023-02-11T10:32:35.374Z,1033.99
2023-02-11T10:36:35.340Z,1034.09
2023-02-11T10:40:35.470Z,1034.17
2023-02-11T10:44:35.592Z,1034.18
2023-02-11T10:48:38.996Z,1034.13
2023-02-11T10:52:35.870Z,1034.2
2023-02-11T10:56:36.004Z,1034.23
2023-02-11T11:00:39.205Z,1034.27
2023-02-11T11:04:36.150Z,1034.41
2023-02-11T11:08:35.990Z,1034.31
2023-02-11T11:12:36.044Z,1034.3
2023-02-11T11:16:36.588Z,1034.36
2023-02-11T11:20:35.518Z,1034.38
2023-02-11T11:24:38.199Z,1034.32
2023-02-11T11:28:35.963Z,1034.31
2023-02-11T11:32:35.995Z,1034.4
2023-02-11T11:36:35.965Z,1034.48
2023-02-11T11:40:36.019Z,1034.44
2023-02-11T11:44:36.005Z,1034.54
2023-02-11T11:48:35.942Z,1034.49
2023-02-11T11:52:35.934Z,1034.52
2023-02-11T11:56:35.786Z,1034.35
2023-02-11T12:00:39.702Z,1034.27
2023-02-11T12:04:36.006Z,1034.38
2023-02-11T12:08:35.395Z,1034.44
2023-02-11T12:12:35.240Z,1034.48
2023-02-11T12:16:36.999Z,1034.48
2023-02-11T12:20:35.612Z,1034.42
2023-02-11T12:24:38.761Z,1034.42
2023-02-11T12:28:36.111Z,1034.43
2023-02-11T12:32:36.144Z,1034.48
2023-02-11T12:36:35.550Z,1034.34
2023-02-11T12:40:35.649Z,1034.62
2023-02-11T12:44:35.635Z,1034.49
2023-02-11T12:48:35.971Z,1034.47
2023-02-11T12:52:35.870Z,1034.59
2023-02-11T12:56:35.800Z,1034.58
2023-02-11T13:00:37.571Z,1034.5
2023-02-11T13:04:35.801Z,1034.52
2023-02-11T13:08:35.869Z,1034.38
2023-02-11T13:12:35.861Z,1034.44
2023-02-11T13:16:36.244Z,1034.51
2023-02-11T13:20:35.720Z,1034.41
2023-02-11T13:24:35.822Z,1034.53
2023-02-11T13:28:36.268Z,1034.52
2023-02-11T13:32:35.880Z,1034.35
2023-02-11T13:36:38.599Z,1034.39
2023-02-11T13:40:35.812Z,1034.43
2023-02-11T13:44:35.545Z,1034.34
2023-02-11T13:48:35.703Z,1034.36
2023-02-11T13:52:35.792Z,1034.3
2023-02-11T13:56:36.004Z,1034.38
2023-02-11T14:00:38.474Z,1034.28
2023-02-11T14:04:35.865Z,1034.35
2023-02-11T14:08:37.668Z,1034.18
2023-02-11T14:12:35.081Z,1034.34
2023-02-11T14:16:49.063Z,1034.36
2023-02-11T14:20:35.638Z,1034.19
2023-02-11T14:24:35.997Z,1034.28
2023-02-11T14:28:36.309Z,1034.29
2023-02-11T14:32:39.315Z,1034.4
2023-02-11T14:36:35.499Z,1034.35
2023-02-11T14:40:35.672Z,1034.18
2023-02-11T14:44:35.737Z,1034.27
2023-02-11T14:48:35.509Z,1034.29
2023-02-11T14:52:35.818Z,1034.25
2023-02-11T14:56:35.622Z,1034.35
2023-02-11T15:00:41.499Z,1034.34
2023-02-11T15:04:35.238Z,1034.34
2023-02-11T15:08:35.494Z,1034.43
2023-02-11T15:12:35.677Z,1034.65
2023-02-11T15:16:36.091Z,1034.62
2023-02-11T15:20:35.794Z,1034.68
2023-02-11T15:24:35.719Z,1034.65
2023-02-11T15:28:35.885Z,1034.72
2023-02-11T15:32:36.262Z,1034.66
2023-02-11T15:36:35.635Z,1034.61
2023-02-11T15:40:35.592Z,1034.67
2023-02-11T15:44:35.462Z,1034.68
2023-02-11T15:48:35.510Z,1034.71
2023-02-11T15:52:35.639Z,1034.61
2023-02-11T15:56:35.549Z,1034.59
2023-02-11T16:00:39.458Z,1034.57
2023-02-11T16:04:35.899Z,1034.57
2023-02-11T16:08:35.818Z,1034.61
2023-02-11T16:12:35.669Z,1034.68
2023-02-11T16:16:35.935Z,1034.83
2023-02-11T16:20:36.122Z,1034.7
2023-02-11T16:24:35.444Z,1034.73
2023-02-11T16:28:35.718Z,1034.79
2023-02-11T16:32:35.724Z,1034.85
2023-02-11T16:36:36.771Z,1034.8
2023-02-11T16:40:35.694Z,1034.85
2023-02-11T16:44:35.500Z,1034.93
2023-02-11T16:48:35.670Z,1035.02
2023-02-11T16:52:35.666Z,1035.12
2023-02-11T16:56:35.694Z,1035.09
2023-02-11T17:00:39.099Z,1035.05
2023-02-11T17:04:36.251Z,1035.18
2023-02-11T17:08:35.408Z,1035.18
2023-02-11T17:12:35.557Z,1035.13
2023-02-11T17:16:35.731Z,1035.3
2023-02-11T17:20:35.383Z,1035.13
2023-02-11T17:24:35.634Z,1035.13
2023-02-11T17:28:35.805Z,1035.19
2023-02-11T17:32:35.942Z,1035.27
2023-02-11T17:36:35.456Z,1035.21
2023-02-11T17:40:35.521Z,1035.28
2023-02-11T17:44:35.719Z,1035.29
2023-02-11T17:48:35.768Z,1035.31
2023-02-11T17:52:35.617Z,1035.42
2023-02-11T17:56:35.841Z,1035.43
2023-02-11T18:00:38.723Z,1035.41
2023-02-11T18:04:35.978Z,1035.45
2023-02-11T18:08:36.055Z,1035.51
2023-02-11T18:12:35.919Z,1035.59
2023-02-11T18:16:36.215Z,1035.55
2023-02-11T18:20:35.920Z,1035.66
2023-02-11T18:24:40.769Z,1035.74
2023-02-11T18:28:36.014Z,1035.74
2023-02-11T18:32:36.161Z,1035.77
2023-02-11T18:36:35.969Z,1035.88
2023-02-11T18:40:35.959Z,1035.8
2023-02-11T18:44:36.025Z,1035.78
2023-02-11T18:48:35.837Z,1035.79
2023-02-11T18:52:35.942Z,1035.79
2023-02-11T18:56:35.927Z,1035.82
2023-02-11T19:00:42.186Z,1035.74
2023-02-11T19:04:37.659Z,1035.94
2023-02-11T19:08:36.963Z,1035.9
2023-02-11T19:12:35.671Z,1035.81
2023-02-11T19:16:36.276Z,1035.89
2023-02-11T19:20:36.640Z,1035.94
2023-02-11T19:24:35.826Z,1035.95
2023-02-11T19:28:36.593Z,1035.94
2023-02-11T19:32:36.472Z,1035.91
2023-02-11T19:36:36.620Z,1035.95
2023-02-11T19:40:35.721Z,1035.91
2023-02-11T19:44:35.790Z,1035.91
2023-02-11T19:48:36.210Z,1035.9
2023-02-11T19:52:35.740Z,1035.99
2023-02-11T19:56:35.974Z,1036.08
2023-02-11T20:00:38.641Z,1036.03
2023-02-11T20:04:35.748Z,1036.05
2023-02-11T20:08:35.780Z,1036.13
2023-02-11T20:12:37.954Z,1036.16
2023-02-11T20:16:56.423Z,1036.22
2023-02-11T20:20:36.372Z,1036.25
2023-02-11T20:24:36.225Z,1036.2
2023-02-11T20:28:37.580Z,1036.3
2023-02-11T20:32:36.780Z,1036.29
2023-02-11T20:36:36.525Z,1036.39
2023-02-11T20:40:37.569Z,1036.32
2023-02-11T20:44:37.089Z,1036.52
2023-02-11T20:48:44.168Z,1036.56
2023-02-11T20:52:37.037Z,1036.59
2023-02-11T20:56:37.721Z,1036.61
2023-02-11T21:00:39.930Z,1036.66
2023-02-11T21:04:36.095Z,1036.76
2023-02-11T21:08:35.925Z,1036.74
2023-02-11T21:12:35.729Z,1036.73
2023-02-11T21:16:36.261Z,1036.69
2023-02-11T21:20:35.859Z,1036.86
2023-02-11T21:24:35.888Z,1036.78
2023-02-11T21:28:36.195Z,1036.78
2023-02-11T21:32:35.648Z,1036.81
2023-02-11T21:36:35.625Z,1036.79
2023-02-11T21:40:35.750Z,1036.91
2023-02-11T21:44:35.742Z,1036.89
2023-02-11T21:48:35.921Z,1036.87
2023-02-11T21:52:36.012Z,1037.03
2023-02-11T21:56:35.946Z,1037.07
2023-02-11T22:00:39.213Z,1037.13
2023-02-11T22:04:35.629Z,1037.14
2023-02-11T22:08:35.454Z,1037.23
2023-02-11T22:12:35.693Z,1037.14
2023-02-11T22:16:36.054Z,1037.09
2023-02-11T22:20:35.885Z,1037.14
2023-02-11T22:24:35.965Z,1037.05
2023-02-11T22:28:35.338Z,1037.18
2023-02-11T22:32:35.383Z,1037.08
2023-02-11T22:36:35.245Z,1037.14
2023-02-11T22:40:35.688Z,1037.06
2023-02-11T22:44:35.899Z,1037.04
2023-02-11T22:48:36.041Z,1037.11
2023-02-11T22:52:35.914Z,1037.1
2023-02-11T22:56:38.041Z,1037.19
2023-02-11T23:00:35.565Z,1037.06
2023-02-11T23:04:35.544Z,1037.11
2023-02-11T23:08:35.784Z,1037.09
2023-02-11T23:12:35.717Z,1037.16
2023-02-11T23:16:36.147Z,1037.19
2023-02-11T23:20:36.058Z,1037.16
2023-02-11T23:24:35.229Z,1037.21
2023-02-11T23:28:35.538Z,1037.27
2023-02-11T23:32:35.854Z,1037.35
2023-02-11T23:36:35.636Z,1037.22
2023-02-11T23:40:35.782Z,1037.29
2023-02-11T23:44:35.945Z,1037.26
2023-02-11T23:48:36.081Z,1037.25
2023-02-11T23:52:35.195Z,1037.33
2023-02-11T23:56:35.068Z,1037.2
